sensor_id;sensor_type;location;lat;lon;timestamp;P1;durP1;ratioP1;P2;durP2;ratioP2
6626;SDS011;3349;49.830;8.748;2022-08-19T00:00:06;20.05;;;18.00;;
6626;SDS011;3349;49.830;8.748;2022-08-19T00:02:35;21.60;;;18.63;;
6626;SDS011;3349;49.830;8.748;2022-08-19T00:05:04;19.17;;;17.13;;
6626;SDS011;3349;49.830;8.748;2022-08-19T00:07:32;21.00;;;18.77;;
6626;SDS011;3349;49.830;8.748;2022-08-19T00:09:58;21.13;;;18.65;;
6626;SDS011;3349;49.830;8.748;2022-08-19T00:12:25;21.40;;;18.95;;
6626;SDS011;3349;49.830;8.748;2022-08-19T00:14:52;21.02;;;18.05;;
6626;SDS011;3349;49.830;8.748;2022-08-19T00:17:20;20.65;;;18.60;;
6626;SDS011;3349;49.830;8.748;2022-08-19T00:19:46;20.58;;;18.33;;
6626;SDS011;3349;49.830;8.748;2022-08-19T00:22:15;20.77;;;18.60;;
6626;SDS011;3349;49.830;8.748;2022-08-19T00:24:42;20.92;;;18.73;;
6626;SDS011;3349;49.830;8.748;2022-08-19T00:27:09;21.35;;;19.02;;
6626;SDS011;3349;49.830;8.748;2022-08-19T00:29:35;21.30;;;18.85;;
6626;SDS011;3349;49.830;8.748;2022-08-19T00:32:02;19.45;;;17.33;;
6626;SDS011;3349;49.830;8.748;2022-08-19T00:34:30;21.73;;;19.42;;
6626;SDS011;3349;49.830;8.748;2022-08-19T00:36:57;20.48;;;18.38;;
6626;SDS011;3349;49.830;8.748;2022-08-19T00:39:25;22.63;;;19.17;;
6626;SDS011;3349;49.830;8.748;2022-08-19T00:41:52;21.70;;;18.38;;
6626;SDS011;3349;49.830;8.748;2022-08-19T00:44:21;23.08;;;20.58;;
6626;SDS011;3349;49.830;8.748;2022-08-19T00:46:50;22.25;;;19.63;;
6626;SDS011;3349;49.830;8.748;2022-08-19T00:49:19;21.77;;;19.58;;
6626;SDS011;3349;49.830;8.748;2022-08-19T00:51:50;22.88;;;19.50;;
6626;SDS011;3349;49.830;8.748;2022-08-19T00:54:19;23.83;;;20.05;;
6626;SDS011;3349;49.830;8.748;2022-08-19T00:56:48;22.50;;;19.88;;
6626;SDS011;3349;49.830;8.748;2022-08-19T00:59:16;23.35;;;19.10;;
6626;SDS011;3349;49.830;8.748;2022-08-19T01:01:44;21.20;;;18.63;;
6626;SDS011;3349;49.830;8.748;2022-08-19T01:04:12;21.60;;;19.00;;
6626;SDS011;3349;49.830;8.748;2022-08-19T01:06:39;21.55;;;19.20;;
6626;SDS011;3349;49.830;8.748;2022-08-19T01:09:07;23.00;;;19.27;;
6626;SDS011;3349;49.830;8.748;2022-08-19T01:11:35;21.75;;;18.38;;
6626;SDS011;3349;49.830;8.748;2022-08-19T01:14:08;23.30;;;19.75;;
6626;SDS011;3349;49.830;8.748;2022-08-19T01:16:36;23.70;;;18.60;;
6626;SDS011;3349;49.830;8.748;2022-08-19T01:19:06;23.30;;;19.08;;
6626;SDS011;3349;49.830;8.748;2022-08-19T01:21:42;20.98;;;18.70;;
6626;SDS011;3349;49.830;8.748;2022-08-19T01:24:16;23.33;;;19.58;;
6626;SDS011;3349;49.830;8.748;2022-08-19T01:26:43;22.58;;;19.08;;
6626;SDS011;3349;49.830;8.748;2022-08-19T01:29:11;22.42;;;19.98;;
6626;SDS011;3349;49.830;8.748;2022-08-19T01:31:38;22.90;;;19.08;;
6626;SDS011;3349;49.830;8.748;2022-08-19T01:34:06;24.95;;;19.63;;
6626;SDS011;3349;49.830;8.748;2022-08-19T01:36:34;22.73;;;19.25;;
6626;SDS011;3349;49.830;8.748;2022-08-19T01:39:03;23.85;;;19.63;;
6626;SDS011;3349;49.830;8.748;2022-08-19T01:41:35;22.27;;;19.50;;
6626;SDS011;3349;49.830;8.748;2022-08-19T01:44:02;23.38;;;20.35;;
6626;SDS011;3349;49.830;8.748;2022-08-19T01:46:30;21.95;;;17.88;;
6626;SDS011;3349;49.830;8.748;2022-08-19T01:48:57;23.17;;;19.60;;
6626;SDS011;3349;49.830;8.748;2022-08-19T01:51:24;23.48;;;19.90;;
6626;SDS011;3349;49.830;8.748;2022-08-19T01:53:51;23.35;;;18.52;;
6626;SDS011;3349;49.830;8.748;2022-08-19T01:56:18;22.20;;;19.35;;
6626;SDS011;3349;49.830;8.748;2022-08-19T01:58:49;23.23;;;18.90;;
6626;SDS011;3349;49.830;8.748;2022-08-19T02:01:19;22.63;;;18.77;;
6626;SDS011;3349;49.830;8.748;2022-08-19T02:03:46;20.58;;;18.40;;
6626;SDS011;3349;49.830;8.748;2022-08-19T02:06:13;23.77;;;18.20;;
6626;SDS011;3349;49.830;8.748;2022-08-19T02:08:42;18.83;;;15.68;;
6626;SDS011;3349;49.830;8.748;2022-08-19T02:11:17;20.10;;;17.42;;
6626;SDS011;3349;49.830;8.748;2022-08-19T02:13:46;17.88;;;16.05;;
6626;SDS011;3349;49.830;8.748;2022-08-19T02:16:14;18.85;;;16.88;;
6626;SDS011;3349;49.830;8.748;2022-08-19T02:18:41;19.88;;;17.75;;
6626;SDS011;3349;49.830;8.748;2022-08-19T02:21:08;19.45;;;15.63;;
6626;SDS011;3349;49.830;8.748;2022-08-19T02:23:36;18.23;;;15.90;;
6626;SDS011;3349;49.830;8.748;2022-08-19T02:26:03;18.30;;;15.98;;
6626;SDS011;3349;49.830;8.748;2022-08-19T02:28:30;20.77;;;16.90;;
6626;SDS011;3349;49.830;8.748;2022-08-19T02:30:58;19.42;;;17.38;;
6626;SDS011;3349;49.830;8.748;2022-08-19T02:33:27;18.55;;;16.60;;
6626;SDS011;3349;49.830;8.748;2022-08-19T02:35:54;18.67;;;16.52;;
6626;SDS011;3349;49.830;8.748;2022-08-19T02:38:20;22.55;;;17.27;;
6626;SDS011;3349;49.830;8.748;2022-08-19T02:40:53;21.92;;;16.90;;
6626;SDS011;3349;49.830;8.748;2022-08-19T02:43:22;18.40;;;16.50;;
6626;SDS011;3349;49.830;8.748;2022-08-19T02:45:52;19.65;;;16.65;;
6626;SDS011;3349;49.830;8.748;2022-08-19T02:48:21;18.85;;;16.17;;
6626;SDS011;3349;49.830;8.748;2022-08-19T02:50:50;18.77;;;16.40;;
6626;SDS011;3349;49.830;8.748;2022-08-19T02:53:20;19.48;;;16.95;;
6626;SDS011;3349;49.830;8.748;2022-08-19T02:55:48;18.95;;;15.98;;
6626;SDS011;3349;49.830;8.748;2022-08-19T02:58:16;18.83;;;16.83;;
6626;SDS011;3349;49.830;8.748;2022-08-19T03:00:43;21.63;;;16.65;;
6626;SDS011;3349;49.830;8.748;2022-08-19T03:03:13;22.45;;;17.27;;
6626;SDS011;3349;49.830;8.748;2022-08-19T03:05:42;19.83;;;17.70;;
6626;SDS011;3349;49.830;8.748;2022-08-19T03:08:09;19.48;;;16.08;;
6626;SDS011;3349;49.830;8.748;2022-08-19T03:10:40;19.30;;;16.42;;
6626;SDS011;3349;49.830;8.748;2022-08-19T03:13:10;17.92;;;16.02;;
6626;SDS011;3349;49.830;8.748;2022-08-19T03:15:41;18.42;;;16.52;;
6626;SDS011;3349;49.830;8.748;2022-08-19T03:18:09;18.73;;;16.58;;
6626;SDS011;3349;49.830;8.748;2022-08-19T03:20:40;18.08;;;15.80;;
6626;SDS011;3349;49.830;8.748;2022-08-19T03:23:09;20.35;;;16.58;;
6626;SDS011;3349;49.830;8.748;2022-08-19T03:25:37;20.20;;;16.52;;
6626;SDS011;3349;49.830;8.748;2022-08-19T03:28:06;20.67;;;18.50;;
6626;SDS011;3349;49.830;8.748;2022-08-19T03:30:33;20.35;;;18.00;;
6626;SDS011;3349;49.830;8.748;2022-08-19T03:33:00;21.02;;;18.75;;
6626;SDS011;3349;49.830;8.748;2022-08-19T03:35:27;21.17;;;18.08;;
6626;SDS011;3349;49.830;8.748;2022-08-19T03:37:55;21.38;;;18.90;;
6626;SDS011;3349;49.830;8.748;2022-08-19T03:40:24;21.38;;;18.67;;
6626;SDS011;3349;49.830;8.748;2022-08-19T03:42:51;22.90;;;18.65;;
6626;SDS011;3349;49.830;8.748;2022-08-19T03:45:18;19.75;;;17.70;;
6626;SDS011;3349;49.830;8.748;2022-08-19T03:47:46;22.50;;;18.88;;
6626;SDS011;3349;49.830;8.748;2022-08-19T03:50:13;22.08;;;19.15;;
6626;SDS011;3349;49.830;8.748;2022-08-19T03:52:40;20.65;;;18.13;;
6626;SDS011;3349;49.830;8.748;2022-08-19T03:55:09;23.60;;;19.13;;
6626;SDS011;3349;49.830;8.748;2022-08-19T03:57:37;20.80;;;17.70;;
6626;SDS011;3349;49.830;8.748;2022-08-19T04:00:04;20.60;;;18.50;;
6626;SDS011;3349;49.830;8.748;2022-08-19T04:02:32;21.38;;;18.02;;
6626;SDS011;3349;49.830;8.748;2022-08-19T04:04:59;17.77;;;15.88;;
6626;SDS011;3349;49.830;8.748;2022-08-19T04:07:26;18.38;;;16.52;;
6626;SDS011;3349;49.830;8.748;2022-08-19T04:09:53;21.25;;;16.60;;
6626;SDS011;3349;49.830;8.748;2022-08-19T04:12:21;18.15;;;16.00;;
6626;SDS011;3349;49.830;8.748;2022-08-19T04:14:48;21.25;;;17.95;;
6626;SDS011;3349;49.830;8.748;2022-08-19T04:17:14;18.30;;;16.23;;
6626;SDS011;3349;49.830;8.748;2022-08-19T04:19:41;19.23;;;17.23;;
6626;SDS011;3349;49.830;8.748;2022-08-19T04:22:08;18.15;;;16.33;;
6626;SDS011;3349;49.830;8.748;2022-08-19T04:24:36;18.67;;;16.02;;
6626;SDS011;3349;49.830;8.748;2022-08-19T04:27:03;20.52;;;16.85;;
6626;SDS011;3349;49.830;8.748;2022-08-19T04:29:32;17.42;;;15.60;;
6626;SDS011;3349;49.830;8.748;2022-08-19T04:32:00;17.92;;;16.02;;
6626;SDS011;3349;49.830;8.748;2022-08-19T04:34:28;20.75;;;18.17;;
6626;SDS011;3349;49.830;8.748;2022-08-19T04:36:55;21.08;;;17.92;;
6626;SDS011;3349;49.830;8.748;2022-08-19T04:39:24;24.15;;;19.45;;
6626;SDS011;3349;49.830;8.748;2022-08-19T04:42:13;20.95;;;17.98;;
6626;SDS011;3349;49.830;8.748;2022-08-19T04:44:56;20.73;;;18.05;;
6626;SDS011;3349;49.830;8.748;2022-08-19T04:47:23;19.42;;;17.23;;
6626;SDS011;3349;49.830;8.748;2022-08-19T04:49:50;19.33;;;17.40;;
6626;SDS011;3349;49.830;8.748;2022-08-19T04:52:17;21.67;;;18.08;;
6626;SDS011;3349;49.830;8.748;2022-08-19T04:54:43;20.88;;;18.13;;
6626;SDS011;3349;49.830;8.748;2022-08-19T04:57:10;19.15;;;16.95;;
6626;SDS011;3349;49.830;8.748;2022-08-19T04:59:37;21.10;;;16.98;;
6626;SDS011;3349;49.830;8.748;2022-08-19T05:02:08;20.27;;;17.77;;
6626;SDS011;3349;49.830;8.748;2022-08-19T05:04:35;25.05;;;18.75;;
6626;SDS011;3349;49.830;8.748;2022-08-19T05:07:04;20.45;;;18.08;;
6626;SDS011;3349;49.830;8.748;2022-08-19T05:09:31;21.27;;;18.55;;
6626;SDS011;3349;49.830;8.748;2022-08-19T05:11:57;21.35;;;18.83;;
6626;SDS011;3349;49.830;8.748;2022-08-19T05:14:24;22.10;;;19.80;;
6626;SDS011;3349;49.830;8.748;2022-08-19T05:16:51;23.08;;;19.20;;
6626;SDS011;3349;49.830;8.748;2022-08-19T05:19:19;24.92;;;19.67;;
6626;SDS011;3349;49.830;8.748;2022-08-19T05:22:03;23.05;;;18.38;;
6626;SDS011;3349;49.830;8.748;2022-08-19T05:24:48;20.90;;;18.63;;
6626;SDS011;3349;49.830;8.748;2022-08-19T05:27:14;19.77;;;17.55;;
6626;SDS011;3349;49.830;8.748;2022-08-19T05:29:41;21.10;;;16.23;;
6626;SDS011;3349;49.830;8.748;2022-08-19T05:32:08;20.88;;;17.35;;
6626;SDS011;3349;49.830;8.748;2022-08-19T05:34:37;21.75;;;17.55;;
6626;SDS011;3349;49.830;8.748;2022-08-19T05:37:04;18.98;;;16.92;;
6626;SDS011;3349;49.830;8.748;2022-08-19T05:39:33;23.67;;;18.10;;
6626;SDS011;3349;49.830;8.748;2022-08-19T05:42:02;19.75;;;17.58;;
6626;SDS011;3349;49.830;8.748;2022-08-19T05:44:31;18.65;;;16.75;;
6626;SDS011;3349;49.830;8.748;2022-08-19T05:46:59;21.08;;;17.13;;
6626;SDS011;3349;49.830;8.748;2022-08-19T05:49:27;20.42;;;16.42;;
6626;SDS011;3349;49.830;8.748;2022-08-19T05:51:56;19.02;;;16.70;;
6626;SDS011;3349;49.830;8.748;2022-08-19T05:54:23;19.10;;;16.65;;
6626;SDS011;3349;49.830;8.748;2022-08-19T05:56:50;21.48;;;17.45;;
6626;SDS011;3349;49.830;8.748;2022-08-19T05:59:19;17.85;;;16.02;;
6626;SDS011;3349;49.830;8.748;2022-08-19T06:01:47;20.70;;;17.90;;
6626;SDS011;3349;49.830;8.748;2022-08-19T06:04:17;17.88;;;16.02;;
6626;SDS011;3349;49.830;8.748;2022-08-19T06:06:44;18.73;;;16.67;;
6626;SDS011;3349;49.830;8.748;2022-08-19T06:09:13;17.95;;;16.05;;
6626;SDS011;3349;49.830;8.748;2022-08-19T06:11:41;20.15;;;17.77;;
6626;SDS011;3349;49.830;8.748;2022-08-19T06:14:10;18.00;;;15.68;;
6626;SDS011;3349;49.830;8.748;2022-08-19T06:16:40;17.33;;;15.52;;
6626;SDS011;3349;49.830;8.748;2022-08-19T06:19:08;19.23;;;16.30;;
6626;SDS011;3349;49.830;8.748;2022-08-19T06:21:37;17.58;;;15.50;;
6626;SDS011;3349;49.830;8.748;2022-08-19T06:24:05;19.92;;;15.43;;
6626;SDS011;3349;49.830;8.748;2022-08-19T06:26:35;17.75;;;15.75;;
6626;SDS011;3349;49.830;8.748;2022-08-19T06:29:02;18.45;;;16.45;;
6626;SDS011;3349;49.830;8.748;2022-08-19T06:31:31;17.92;;;16.00;;
6626;SDS011;3349;49.830;8.748;2022-08-19T06:33:59;18.52;;;15.10;;
6626;SDS011;3349;49.830;8.748;2022-08-19T06:36:28;18.17;;;15.55;;
6626;SDS011;3349;49.830;8.748;2022-08-19T06:38:59;17.10;;;15.32;;
6626;SDS011;3349;49.830;8.748;2022-08-19T06:41:27;16.60;;;14.68;;
6626;SDS011;3349;49.830;8.748;2022-08-19T06:43:56;17.95;;;14.10;;
6626;SDS011;3349;49.830;8.748;2022-08-19T06:46:23;16.30;;;13.77;;
6626;SDS011;3349;49.830;8.748;2022-08-19T06:48:51;16.58;;;13.98;;
6626;SDS011;3349;49.830;8.748;2022-08-19T06:51:19;15.48;;;13.88;;
6626;SDS011;3349;49.830;8.748;2022-08-19T06:53:48;19.73;;;14.77;;
6626;SDS011;3349;49.830;8.748;2022-08-19T06:56:17;15.70;;;14.00;;
6626;SDS011;3349;49.830;8.748;2022-08-19T06:58:46;16.63;;;14.93;;
6626;SDS011;3349;49.830;8.748;2022-08-19T07:01:14;16.55;;;14.15;;
6626;SDS011;3349;49.830;8.748;2022-08-19T07:03:41;16.42;;;14.38;;
6626;SDS011;3349;49.830;8.748;2022-08-19T07:06:08;17.15;;;15.40;;
6626;SDS011;3349;49.830;8.748;2022-08-19T07:08:39;17.23;;;15.40;;
6626;SDS011;3349;49.830;8.748;2022-08-19T07:11:07;16.35;;;13.90;;
6626;SDS011;3349;49.830;8.748;2022-08-19T07:13:36;18.25;;;15.32;;
6626;SDS011;3349;49.830;8.748;2022-08-19T07:16:03;16.38;;;14.60;;
6626;SDS011;3349;49.830;8.748;2022-08-19T07:18:33;15.20;;;13.60;;
6626;SDS011;3349;49.830;8.748;2022-08-19T07:21:03;21.30;;;15.25;;
6626;SDS011;3349;49.830;8.748;2022-08-19T07:23:31;14.32;;;12.93;;
6626;SDS011;3349;49.830;8.748;2022-08-19T07:25:58;15.55;;;13.55;;
6626;SDS011;3349;49.830;8.748;2022-08-19T07:28:29;14.65;;;12.70;;
6626;SDS011;3349;49.830;8.748;2022-08-19T07:30:56;17.77;;;12.38;;
6626;SDS011;3349;49.830;8.748;2022-08-19T07:33:23;14.43;;;11.70;;
6626;SDS011;3349;49.830;8.748;2022-08-19T07:35:53;14.20;;;12.80;;
6626;SDS011;3349;49.830;8.748;2022-08-19T07:38:20;13.40;;;12.00;;
6626;SDS011;3349;49.830;8.748;2022-08-19T07:40:47;16.23;;;12.60;;
6626;SDS011;3349;49.830;8.748;2022-08-19T07:43:13;13.40;;;11.57;;
6626;SDS011;3349;49.830;8.748;2022-08-19T07:45:41;13.77;;;11.80;;
6626;SDS011;3349;49.830;8.748;2022-08-19T07:48:07;13.65;;;12.05;;
6626;SDS011;3349;49.830;8.748;2022-08-19T07:50:35;14.15;;;11.57;;
6626;SDS011;3349;49.830;8.748;2022-08-19T07:53:03;13.52;;;12.13;;
6626;SDS011;3349;49.830;8.748;2022-08-19T07:55:30;13.30;;;11.90;;
6626;SDS011;3349;49.830;8.748;2022-08-19T07:57:57;14.20;;;11.25;;
6626;SDS011;3349;49.830;8.748;2022-08-19T08:00:23;16.05;;;11.15;;
6626;SDS011;3349;49.830;8.748;2022-08-19T08:02:51;12.20;;;10.90;;
6626;SDS011;3349;49.830;8.748;2022-08-19T08:05:18;12.23;;;10.18;;
6626;SDS011;3349;49.830;8.748;2022-08-19T08:08:03;11.88;;;9.35;;
6626;SDS011;3349;49.830;8.748;2022-08-19T08:11:02;11.27;;;10.15;;
6626;SDS011;3349;49.830;8.748;2022-08-19T08:13:29;12.23;;;10.05;;
6626;SDS011;3349;49.830;8.748;2022-08-19T08:15:58;10.73;;;9.38;;
6626;SDS011;3349;49.830;8.748;2022-08-19T08:18:24;10.30;;;9.25;;
6626;SDS011;3349;49.830;8.748;2022-08-19T08:20:51;12.55;;;10.23;;
6626;SDS011;3349;49.830;8.748;2022-08-19T08:23:20;13.75;;;10.48;;
6626;SDS011;3349;49.830;8.748;2022-08-19T08:25:50;11.23;;;9.63;;
6626;SDS011;3349;49.830;8.748;2022-08-19T08:28:17;11.32;;;10.25;;
6626;SDS011;3349;49.830;8.748;2022-08-19T08:30:45;11.40;;;9.15;;
6626;SDS011;3349;49.830;8.748;2022-08-19T08:33:13;9.77;;;8.73;;
6626;SDS011;3349;49.830;8.748;2022-08-19T08:35:40;13.13;;;9.15;;
6626;SDS011;3349;49.830;8.748;2022-08-19T08:38:07;9.43;;;8.50;;
6626;SDS011;3349;49.830;8.748;2022-08-19T08:40:39;9.13;;;7.97;;
6626;SDS011;3349;49.830;8.748;2022-08-19T08:43:13;11.05;;;8.50;;
6626;SDS011;3349;49.830;8.748;2022-08-19T08:45:49;8.95;;;8.05;;
6626;SDS011;3349;49.830;8.748;2022-08-19T08:48:22;9.95;;;8.95;;
6626;SDS011;3349;49.830;8.748;2022-08-19T08:50:53;8.00;;;7.00;;
6626;SDS011;3349;49.830;8.748;2022-08-19T08:53:22;7.38;;;6.78;;
6626;SDS011;3349;49.830;8.748;2022-08-19T08:55:52;7.90;;;7.00;;
6626;SDS011;3349;49.830;8.748;2022-08-19T08:58:20;8.18;;;6.97;;
6626;SDS011;3349;49.830;8.748;2022-08-19T09:00:55;6.70;;;6.00;;
6626;SDS011;3349;49.830;8.748;2022-08-19T09:03:23;7.88;;;6.53;;
6626;SDS011;3349;49.830;8.748;2022-08-19T09:05:55;6.57;;;5.88;;
6626;SDS011;3349;49.830;8.748;2022-08-19T09:08:30;6.75;;;6.13;;
6626;SDS011;3349;49.830;8.748;2022-08-19T09:11:07;7.22;;;6.55;;
6626;SDS011;3349;49.830;8.748;2022-08-19T09:13:39;7.35;;;6.65;;
6626;SDS011;3349;49.830;8.748;2022-08-19T09:16:12;6.40;;;5.80;;
6626;SDS011;3349;49.830;8.748;2022-08-19T09:18:41;6.78;;;6.28;;
6626;SDS011;3349;49.830;8.748;2022-08-19T09:21:11;6.15;;;5.65;;
6626;SDS011;3349;49.830;8.748;2022-08-19T09:23:38;6.90;;;6.30;;
6626;SDS011;3349;49.830;8.748;2022-08-19T09:26:10;6.63;;;5.95;;
6626;SDS011;3349;49.830;8.748;2022-08-19T09:28:39;7.03;;;6.40;;
6626;SDS011;3349;49.830;8.748;2022-08-19T09:31:08;6.47;;;5.88;;
6626;SDS011;3349;49.830;8.748;2022-08-19T09:33:35;6.75;;;6.10;;
6626;SDS011;3349;49.830;8.748;2022-08-19T09:36:04;6.72;;;6.13;;
6626;SDS011;3349;49.830;8.748;2022-08-19T09:38:32;6.47;;;5.97;;
6626;SDS011;3349;49.830;8.748;2022-08-19T09:41:02;6.75;;;6.15;;
6626;SDS011;3349;49.830;8.748;2022-08-19T09:43:32;6.88;;;6.13;;
6626;SDS011;3349;49.830;8.748;2022-08-19T09:46:01;6.97;;;6.38;;
6626;SDS011;3349;49.830;8.748;2022-08-19T09:48:30;6.07;;;5.57;;
6626;SDS011;3349;49.830;8.748;2022-08-19T09:51:01;6.28;;;5.68;;
6626;SDS011;3349;49.830;8.748;2022-08-19T09:53:30;6.85;;;6.25;;
6626;SDS011;3349;49.830;8.748;2022-08-19T09:55:56;8.57;;;7.70;;
6626;SDS011;3349;49.830;8.748;2022-08-19T09:58:23;9.30;;;8.40;;
6626;SDS011;3349;49.830;8.748;2022-08-19T10:00:54;11.23;;;8.38;;
6626;SDS011;3349;49.830;8.748;2022-08-19T10:03:21;7.43;;;6.72;;
6626;SDS011;3349;49.830;8.748;2022-08-19T10:05:48;7.18;;;6.47;;
6626;SDS011;3349;49.830;8.748;2022-08-19T10:08:16;6.50;;;5.90;;
6626;SDS011;3349;49.830;8.748;2022-08-19T10:10:44;6.35;;;5.75;;
6626;SDS011;3349;49.830;8.748;2022-08-19T10:13:12;6.97;;;5.90;;
6626;SDS011;3349;49.830;8.748;2022-08-19T10:15:40;8.13;;;6.60;;
6626;SDS011;3349;49.830;8.748;2022-08-19T10:18:09;6.88;;;6.28;;
6626;SDS011;3349;49.830;8.748;2022-08-19T10:20:36;7.53;;;6.78;;
6626;SDS011;3349;49.830;8.748;2022-08-19T10:23:03;6.72;;;6.13;;
6626;SDS011;3349;49.830;8.748;2022-08-19T10:25:31;7.78;;;6.50;;
6626;SDS011;3349;49.830;8.748;2022-08-19T10:27:59;7.05;;;6.35;;
6626;SDS011;3349;49.830;8.748;2022-08-19T10:30:27;7.15;;;6.40;;
6626;SDS011;3349;49.830;8.748;2022-08-19T10:32:54;7.30;;;6.70;;
6626;SDS011;3349;49.830;8.748;2022-08-19T10:35:23;8.27;;;7.53;;
6626;SDS011;3349;49.830;8.748;2022-08-19T10:37:51;9.15;;;8.25;;
6626;SDS011;3349;49.830;8.748;2022-08-19T10:40:18;8.20;;;7.50;;
6626;SDS011;3349;49.830;8.748;2022-08-19T10:42:45;9.32;;;8.52;;
6626;SDS011;3349;49.830;8.748;2022-08-19T10:45:11;7.70;;;7.03;;
6626;SDS011;3349;49.830;8.748;2022-08-19T10:47:38;7.43;;;6.78;;
6626;SDS011;3349;49.830;8.748;2022-08-19T10:50:05;7.82;;;7.13;;
6626;SDS011;3349;49.830;8.748;2022-08-19T10:52:52;7.00;;;6.30;;
6626;SDS011;3349;49.830;8.748;2022-08-19T10:55:20;6.80;;;6.30;;
6626;SDS011;3349;49.830;8.748;2022-08-19T10:58:09;7.03;;;6.43;;
6626;SDS011;3349;49.830;8.748;2022-08-19T11:00:38;8.00;;;7.32;;
6626;SDS011;3349;49.830;8.748;2022-08-19T11:03:05;8.35;;;7.75;;
6626;SDS011;3349;49.830;8.748;2022-08-19T11:05:32;9.60;;;8.63;;
6626;SDS011;3349;49.830;8.748;2022-08-19T11:08:00;8.85;;;7.95;;
6626;SDS011;3349;49.830;8.748;2022-08-19T11:10:27;9.25;;;8.32;;
6626;SDS011;3349;49.830;8.748;2022-08-19T11:12:54;8.70;;;7.95;;
6626;SDS011;3349;49.830;8.748;2022-08-19T11:15:21;8.13;;;7.43;;
6626;SDS011;3349;49.830;8.748;2022-08-19T11:17:48;8.07;;;7.38;;
6626;SDS011;3349;49.830;8.748;2022-08-19T11:20:19;8.07;;;7.38;;
6626;SDS011;3349;49.830;8.748;2022-08-19T11:22:46;8.70;;;8.00;;
6626;SDS011;3349;49.830;8.748;2022-08-19T11:25:14;9.13;;;8.38;;
6626;SDS011;3349;49.830;8.748;2022-08-19T11:27:41;8.45;;;7.72;;
6626;SDS011;3349;49.830;8.748;2022-08-19T11:30:11;9.18;;;8.48;;
6626;SDS011;3349;49.830;8.748;2022-08-19T11:32:38;9.77;;;8.82;;
6626;SDS011;3349;49.830;8.748;2022-08-19T11:35:06;9.95;;;9.15;;
6626;SDS011;3349;49.830;8.748;2022-08-19T11:37:33;9.60;;;8.70;;
6626;SDS011;3349;49.830;8.748;2022-08-19T11:40:03;9.63;;;8.93;;
6626;SDS011;3349;49.830;8.748;2022-08-19T11:42:32;9.40;;;8.60;;
6626;SDS011;3349;49.830;8.748;2022-08-19T11:45:16;9.52;;;8.73;;
6626;SDS011;3349;49.830;8.748;2022-08-19T11:47:43;9.30;;;8.60;;
6626;SDS011;3349;49.830;8.748;2022-08-19T11:50:11;9.65;;;8.85;;
6626;SDS011;3349;49.830;8.748;2022-08-19T11:52:38;8.73;;;8.13;;
6626;SDS011;3349;49.830;8.748;2022-08-19T11:55:05;9.25;;;8.45;;
6626;SDS011;3349;49.830;8.748;2022-08-19T11:57:34;10.07;;;9.27;;
6626;SDS011;3349;49.830;8.748;2022-08-19T12:00:02;9.25;;;8.55;;
6626;SDS011;3349;49.830;8.748;2022-08-19T12:02:31;9.23;;;8.35;;
6626;SDS011;3349;49.830;8.748;2022-08-19T12:04:57;9.80;;;8.90;;
6626;SDS011;3349;49.830;8.748;2022-08-19T12:07:27;9.18;;;8.40;;
6626;SDS011;3349;49.830;8.748;2022-08-19T12:09:58;8.95;;;8.25;;
6626;SDS011;3349;49.830;8.748;2022-08-19T12:12:24;8.82;;;8.13;;
6626;SDS011;3349;49.830;8.748;2022-08-19T12:14:53;9.18;;;8.48;;
6626;SDS011;3349;49.830;8.748;2022-08-19T12:17:23;9.80;;;9.00;;
6626;SDS011;3349;49.830;8.748;2022-08-19T12:19:50;10.18;;;9.38;;
6626;SDS011;3349;49.830;8.748;2022-08-19T12:22:17;9.98;;;8.98;;
6626;SDS011;3349;49.830;8.748;2022-08-19T12:24:45;11.02;;;10.02;;
6626;SDS011;3349;49.830;8.748;2022-08-19T12:27:13;10.82;;;9.93;;
6626;SDS011;3349;49.830;8.748;2022-08-19T12:29:39;10.98;;;10.07;;
6626;SDS011;3349;49.830;8.748;2022-08-19T12:32:07;12.00;;;10.90;;
6626;SDS011;3349;49.830;8.748;2022-08-19T12:34:35;11.75;;;10.75;;
6626;SDS011;3349;49.830;8.748;2022-08-19T12:37:02;11.48;;;10.57;;
6626;SDS011;3349;49.830;8.748;2022-08-19T12:39:33;12.13;;;11.13;;
6626;SDS011;3349;49.830;8.748;2022-08-19T12:42:01;12.38;;;11.18;;
6626;SDS011;3349;49.830;8.748;2022-08-19T12:44:27;11.70;;;10.70;;
6626;SDS011;3349;49.830;8.748;2022-08-19T12:46:56;11.73;;;10.73;;
6626;SDS011;3349;49.830;8.748;2022-08-19T12:49:24;11.95;;;10.95;;
6626;SDS011;3349;49.830;8.748;2022-08-19T12:51:53;12.90;;;11.80;;
6626;SDS011;3349;49.830;8.748;2022-08-19T12:54:20;13.15;;;11.93;;
6626;SDS011;3349;49.830;8.748;2022-08-19T12:56:47;12.88;;;11.63;;
6626;SDS011;3349;49.830;8.748;2022-08-19T12:59:14;13.48;;;12.23;;
6626;SDS011;3349;49.830;8.748;2022-08-19T13:01:42;13.68;;;12.48;;
6626;SDS011;3349;49.830;8.748;2022-08-19T13:04:10;12.52;;;11.48;;
6626;SDS011;3349;49.830;8.748;2022-08-19T13:06:38;13.18;;;12.07;;
6626;SDS011;3349;49.830;8.748;2022-08-19T13:09:05;12.65;;;11.48;;
6626;SDS011;3349;49.830;8.748;2022-08-19T13:11:31;11.40;;;10.30;;
6626;SDS011;3349;49.830;8.748;2022-08-19T13:13:58;10.05;;;9.23;;
6626;SDS011;3349;49.830;8.748;2022-08-19T13:16:26;11.35;;;10.32;;
6626;SDS011;3349;49.830;8.748;2022-08-19T13:18:53;8.65;;;7.85;;
6626;SDS011;3349;49.830;8.748;2022-08-19T13:21:22;9.55;;;8.68;;
6626;SDS011;3349;49.830;8.748;2022-08-19T13:23:52;9.15;;;8.43;;
6626;SDS011;3349;49.830;8.748;2022-08-19T13:26:19;9.95;;;9.10;;
6626;SDS011;3349;49.830;8.748;2022-08-19T13:28:46;9.88;;;8.98;;
6626;SDS011;3349;49.830;8.748;2022-08-19T13:31:32;10.05;;;8.85;;
6626;SDS011;3349;49.830;8.748;2022-08-19T13:34:18;7.57;;;6.78;;
6626;SDS011;3349;49.830;8.748;2022-08-19T13:36:51;7.40;;;6.80;;
6626;SDS011;3349;49.830;8.748;2022-08-19T13:39:19;7.50;;;6.72;;
6626;SDS011;3349;49.830;8.748;2022-08-19T13:41:48;8.73;;;8.02;;
6626;SDS011;3349;49.830;8.748;2022-08-19T13:44:15;11.25;;;10.18;;
6626;SDS011;3349;49.830;8.748;2022-08-19T13:46:43;10.43;;;9.52;;
6626;SDS011;3349;49.830;8.748;2022-08-19T13:49:10;6.70;;;6.10;;
6626;SDS011;3349;49.830;8.748;2022-08-19T13:51:37;6.30;;;5.80;;
6626;SDS011;3349;49.830;8.748;2022-08-19T13:54:05;7.43;;;6.78;;
6626;SDS011;3349;49.830;8.748;2022-08-19T13:56:34;6.95;;;6.32;;
6626;SDS011;3349;49.830;8.748;2022-08-19T13:59:05;7.05;;;6.35;;
6626;SDS011;3349;49.830;8.748;2022-08-19T14:01:32;6.40;;;5.90;;
6626;SDS011;3349;49.830;8.748;2022-08-19T14:03:59;6.63;;;6.03;;
6626;SDS011;3349;49.830;8.748;2022-08-19T14:06:26;6.78;;;6.07;;
6626;SDS011;3349;49.830;8.748;2022-08-19T14:08:53;6.97;;;5.50;;
6626;SDS011;3349;49.830;8.748;2022-08-19T14:11:20;6.60;;;6.10;;
6626;SDS011;3349;49.830;8.748;2022-08-19T14:13:49;6.05;;;5.45;;
6626;SDS011;3349;49.830;8.748;2022-08-19T14:16:16;6.75;;;5.68;;
6626;SDS011;3349;49.830;8.748;2022-08-19T14:18:43;6.70;;;6.15;;
6626;SDS011;3349;49.830;8.748;2022-08-19T14:21:14;6.35;;;5.85;;
6626;SDS011;3349;49.830;8.748;2022-08-19T14:23:42;6.20;;;5.60;;
6626;SDS011;3349;49.830;8.748;2022-08-19T14:26:10;5.97;;;5.25;;
6626;SDS011;3349;49.830;8.748;2022-08-19T14:28:39;5.60;;;5.20;;
6626;SDS011;3349;49.830;8.748;2022-08-19T14:31:08;8.18;;;5.35;;
6626;SDS011;3349;49.830;8.748;2022-08-19T14:33:35;5.10;;;4.70;;
6626;SDS011;3349;49.830;8.748;2022-08-19T14:36:02;5.70;;;5.20;;
6626;SDS011;3349;49.830;8.748;2022-08-19T14:38:29;5.30;;;4.90;;
6626;SDS011;3349;49.830;8.748;2022-08-19T14:41:05;5.22;;;4.72;;
6626;SDS011;3349;49.830;8.748;2022-08-19T14:43:33;6.03;;;4.68;;
6626;SDS011;3349;49.830;8.748;2022-08-19T14:46:00;4.85;;;4.45;;
6626;SDS011;3349;49.830;8.748;2022-08-19T14:48:28;4.95;;;4.55;;
6626;SDS011;3349;49.830;8.748;2022-08-19T14:50:55;5.32;;;4.82;;
6626;SDS011;3349;49.830;8.748;2022-08-19T14:53:22;5.00;;;4.45;;
6626;SDS011;3349;49.830;8.748;2022-08-19T14:55:49;4.43;;;4.03;;
6626;SDS011;3349;49.830;8.748;2022-08-19T14:58:16;4.93;;;4.50;;
6626;SDS011;3349;49.830;8.748;2022-08-19T15:00:42;5.35;;;4.18;;
6626;SDS011;3349;49.830;8.748;2022-08-19T15:03:09;5.60;;;5.10;;
6626;SDS011;3349;49.830;8.748;2022-08-19T15:05:39;4.72;;;4.30;;